sensor_id;sensor_type;location;lat;lon;timestamp;P1;durP1;ratioP1;P2;durP2;ratioP2
13250;SDS011;6692;50.710;7.180;2022-07-21T00:01:02;773.93;;;732.40;;
13250;SDS011;6692;50.710;7.180;2022-07-21T00:03:03;778.93;;;737.40;;
13250;SDS011;6692;50.710;7.180;2022-07-21T00:05:04;1041.63;;;970.00;;
13250;SDS011;6692;50.710;7.180;2022-07-21T00:07:05;863.73;;;812.53;;
13250;SDS011;6692;50.710;7.180;2022-07-21T00:09:06;811.73;;;765.57;;
13250;SDS011;6692;50.710;7.180;2022-07-21T00:11:07;789.47;;;745.63;;
13250;SDS011;6692;50.710;7.180;2022-07-21T00:13:08;763.70;;;722.97;;
13250;SDS011;6692;50.710;7.180;2022-07-21T00:15:09;748.80;;;709.77;;
13250;SDS011;6692;50.710;7.180;2022-07-21T00:17:11;750.70;;;712.37;;
13250;SDS011;6692;50.710;7.180;2022-07-21T00:19:11;768.93;;;727.93;;
13250;SDS011;6692;50.710;7.180;2022-07-21T00:21:13;777.00;;;734.97;;
13250;SDS011;6692;50.710;7.180;2022-07-21T00:23:14;797.43;;;753.93;;
13250;SDS011;6692;50.710;7.180;2022-07-21T00:25:15;805.80;;;761.17;;
13250;SDS011;6692;50.710;7.180;2022-07-21T00:27:15;789.70;;;747.03;;
13250;SDS011;6692;50.710;7.180;2022-07-21T00:29:16;798.50;;;754.63;;
13250;SDS011;6692;50.710;7.180;2022-07-21T00:31:16;785.07;;;742.87;;
13250;SDS011;6692;50.710;7.180;2022-07-21T00:33:17;799.17;;;755.07;;
13250;SDS011;6692;50.710;7.180;2022-07-21T00:35:18;810.70;;;765.87;;
13250;SDS011;6692;50.710;7.180;2022-07-21T00:37:18;800.63;;;756.60;;
13250;SDS011;6692;50.710;7.180;2022-07-21T00:39:20;776.33;;;735.30;;
13250;SDS011;6692;50.710;7.180;2022-07-21T00:41:21;786.77;;;744.33;;
13250;SDS011;6692;50.710;7.180;2022-07-21T00:43:22;793.97;;;751.57;;
13250;SDS011;6692;50.710;7.180;2022-07-21T00:45:22;782.70;;;740.73;;
13250;SDS011;6692;50.710;7.180;2022-07-21T00:47:24;809.60;;;765.33;;
13250;SDS011;6692;50.710;7.180;2022-07-21T00:49:25;790.50;;;747.27;;
13250;SDS011;6692;50.710;7.180;2022-07-21T00:51:25;817.53;;;771.53;;
13250;SDS011;6692;50.710;7.180;2022-07-21T00:53:26;822.97;;;775.90;;
13250;SDS011;6692;50.710;7.180;2022-07-21T00:55:27;805.17;;;761.83;;
13250;SDS011;6692;50.710;7.180;2022-07-21T00:57:27;797.27;;;753.77;;
13250;SDS011;6692;50.710;7.180;2022-07-21T00:59:29;839.63;;;791.37;;
13250;SDS011;6692;50.710;7.180;2022-07-21T01:01:28;828.03;;;781.87;;
13250;SDS011;6692;50.710;7.180;2022-07-21T01:03:29;793.50;;;751.03;;
13250;SDS011;6692;50.710;7.180;2022-07-21T01:05:30;793.20;;;750.23;;
13250;SDS011;6692;50.710;7.180;2022-07-21T01:07:30;787.73;;;745.57;;
13250;SDS011;6692;50.710;7.180;2022-07-21T01:09:31;808.17;;;764.00;;
13250;SDS011;6692;50.710;7.180;2022-07-21T01:11:32;815.17;;;770.07;;
13250;SDS011;6692;50.710;7.180;2022-07-21T01:13:32;814.27;;;769.37;;
13250;SDS011;6692;50.710;7.180;2022-07-21T01:15:33;813.17;;;768.20;;
13250;SDS011;6692;50.710;7.180;2022-07-21T01:17:34;804.97;;;760.73;;
13250;SDS011;6692;50.710;7.180;2022-07-21T01:19:35;794.83;;;751.60;;
13250;SDS011;6692;50.710;7.180;2022-07-21T01:21:36;775.80;;;734.13;;
13250;SDS011;6692;50.710;7.180;2022-07-21T01:23:36;793.10;;;750.63;;
13250;SDS011;6692;50.710;7.180;2022-07-21T01:25:37;779.73;;;737.90;;
13250;SDS011;6692;50.710;7.180;2022-07-21T01:27:38;781.87;;;740.33;;
13250;SDS011;6692;50.710;7.180;2022-07-21T01:29:38;775.00;;;734.10;;
13250;SDS011;6692;50.710;7.180;2022-07-21T01:31:39;783.40;;;741.63;;
13250;SDS011;6692;50.710;7.180;2022-07-21T01:33:39;782.43;;;740.53;;
13250;SDS011;6692;50.710;7.180;2022-07-21T01:35:40;801.07;;;757.33;;
13250;SDS011;6692;50.710;7.180;2022-07-21T01:37:43;785.70;;;743.87;;
13250;SDS011;6692;50.710;7.180;2022-07-21T01:39:41;756.67;;;717.93;;
13250;SDS011;6692;50.710;7.180;2022-07-21T01:41:49;754.40;;;715.47;;
13250;SDS011;6692;50.710;7.180;2022-07-21T01:43:50;786.07;;;744.37;;
13250;SDS011;6692;50.710;7.180;2022-07-21T01:45:51;798.73;;;755.73;;
13250;SDS011;6692;50.710;7.180;2022-07-21T01:47:51;794.43;;;751.77;;
13250;SDS011;6692;50.710;7.180;2022-07-21T01:49:52;785.00;;;742.97;;
13250;SDS011;6692;50.710;7.180;2022-07-21T01:51:53;776.23;;;735.33;;
13250;SDS011;6692;50.710;7.180;2022-07-21T01:53:54;796.97;;;754.20;;
13250;SDS011;6692;50.710;7.180;2022-07-21T01:55:54;772.07;;;731.50;;
13250;SDS011;6692;50.710;7.180;2022-07-21T01:57:55;783.93;;;742.77;;
13250;SDS011;6692;50.710;7.180;2022-07-21T01:59:55;800.37;;;757.40;;
13250;SDS011;6692;50.710;7.180;2022-07-21T02:01:56;801.33;;;758.07;;
13250;SDS011;6692;50.710;7.180;2022-07-21T02:03:59;808.37;;;764.23;;
13250;SDS011;6692;50.710;7.180;2022-07-21T02:06:01;797.10;;;753.83;;
13250;SDS011;6692;50.710;7.180;2022-07-21T02:08:01;784.53;;;742.27;;
13250;SDS011;6692;50.710;7.180;2022-07-21T02:10:02;776.27;;;735.33;;
13250;SDS011;6692;50.710;7.180;2022-07-21T02:12:02;770.43;;;729.73;;
13250;SDS011;6692;50.710;7.180;2022-07-21T02:14:04;768.50;;;728.70;;
13250;SDS011;6692;50.710;7.180;2022-07-21T02:16:04;774.80;;;734.33;;
13250;SDS011;6692;50.710;7.180;2022-07-21T02:18:05;787.60;;;745.07;;
13250;SDS011;6692;50.710;7.180;2022-07-21T02:20:07;798.10;;;755.50;;
13250;SDS011;6692;50.710;7.180;2022-07-21T02:22:08;771.27;;;731.17;;
13250;SDS011;6692;50.710;7.180;2022-07-21T02:24:09;782.87;;;741.13;;
13250;SDS011;6692;50.710;7.180;2022-07-21T02:26:10;742.00;;;704.60;;
13250;SDS011;6692;50.710;7.180;2022-07-21T02:28:11;753.93;;;715.47;;
13250;SDS011;6692;50.710;7.180;2022-07-21T02:30:12;767.87;;;727.87;;
13250;SDS011;6692;50.710;7.180;2022-07-21T02:32:12;776.50;;;735.57;;
13250;SDS011;6692;50.710;7.180;2022-07-21T02:34:13;769.97;;;730.13;;
13250;SDS011;6692;50.710;7.180;2022-07-21T02:36:13;759.97;;;720.37;;
13250;SDS011;6692;50.710;7.180;2022-07-21T02:38:14;750.60;;;711.37;;
13250;SDS011;6692;50.710;7.180;2022-07-21T02:40:15;759.87;;;720.63;;
13250;SDS011;6692;50.710;7.180;2022-07-21T02:42:17;757.00;;;718.20;;
13250;SDS011;6692;50.710;7.180;2022-07-21T02:44:17;754.03;;;715.63;;
13250;SDS011;6692;50.710;7.180;2022-07-21T02:46:19;759.80;;;720.70;;
13250;SDS011;6692;50.710;7.180;2022-07-21T02:48:20;768.33;;;728.37;;
13250;SDS011;6692;50.710;7.180;2022-07-21T02:50:21;776.53;;;735.97;;
13250;SDS011;6692;50.710;7.180;2022-07-21T02:52:21;775.27;;;734.70;;
13250;SDS011;6692;50.710;7.180;2022-07-21T02:54:22;760.63;;;721.60;;
13250;SDS011;6692;50.710;7.180;2022-07-21T02:56:23;759.97;;;721.63;;
13250;SDS011;6692;50.710;7.180;2022-07-21T02:58:25;737.23;;;699.67;;
13250;SDS011;6692;50.710;7.180;2022-07-21T03:00:25;717.30;;;682.63;;
13250;SDS011;6692;50.710;7.180;2022-07-21T03:02:27;699.27;;;665.83;;
13250;SDS011;6692;50.710;7.180;2022-07-21T03:04:27;703.97;;;670.40;;
13250;SDS011;6692;50.710;7.180;2022-07-21T03:06:28;739.43;;;701.87;;
13250;SDS011;6692;50.710;7.180;2022-07-21T03:08:29;729.87;;;693.47;;
13250;SDS011;6692;50.710;7.180;2022-07-21T03:10:30;721.63;;;685.37;;
13250;SDS011;6692;50.710;7.180;2022-07-21T03:12:30;738.03;;;701.00;;
13250;SDS011;6692;50.710;7.180;2022-07-21T03:14:32;720.67;;;684.70;;
13250;SDS011;6692;50.710;7.180;2022-07-21T03:16:33;713.93;;;678.73;;
13250;SDS011;6692;50.710;7.180;2022-07-21T03:18:34;730.83;;;694.83;;
13250;SDS011;6692;50.710;7.180;2022-07-21T03:20:35;742.37;;;705.40;;
13250;SDS011;6692;50.710;7.180;2022-07-21T03:22:35;753.37;;;715.87;;
13250;SDS011;6692;50.710;7.180;2022-07-21T03:24:36;748.53;;;710.90;;
13250;SDS011;6692;50.710;7.180;2022-07-21T03:26:37;747.90;;;709.70;;
13250;SDS011;6692;50.710;7.180;2022-07-21T03:28:38;740.20;;;702.90;;
13250;SDS011;6692;50.710;7.180;2022-07-21T03:30:38;731.73;;;695.53;;
13250;SDS011;6692;50.710;7.180;2022-07-21T03:32:40;729.57;;;693.40;;
13250;SDS011;6692;50.710;7.180;2022-07-21T03:34:41;741.57;;;704.07;;
13250;SDS011;6692;50.710;7.180;2022-07-21T03:36:42;730.90;;;694.70;;
13250;SDS011;6692;50.710;7.180;2022-07-21T03:38:43;727.87;;;692.00;;
13250;SDS011;6692;50.710;7.180;2022-07-21T03:40:43;708.37;;;673.67;;
13250;SDS011;6692;50.710;7.180;2022-07-21T03:42:44;705.27;;;671.07;;
13250;SDS011;6692;50.710;7.180;2022-07-21T03:44:45;699.50;;;665.97;;
13250;SDS011;6692;50.710;7.180;2022-07-21T03:46:45;700.33;;;666.50;;
13250;SDS011;6692;50.710;7.180;2022-07-21T03:48:46;706.10;;;672.07;;
13250;SDS011;6692;50.710;7.180;2022-07-21T03:50:46;715.60;;;680.87;;
13250;SDS011;6692;50.710;7.180;2022-07-21T03:52:48;701.53;;;667.97;;
13250;SDS011;6692;50.710;7.180;2022-07-21T03:54:49;673.27;;;641.30;;
13250;SDS011;6692;50.710;7.180;2022-07-21T03:56:49;694.43;;;660.97;;
13250;SDS011;6692;50.710;7.180;2022-07-21T03:58:50;679.40;;;646.97;;
13250;SDS011;6692;50.710;7.180;2022-07-21T04:00:51;696.87;;;663.30;;
13250;SDS011;6692;50.710;7.180;2022-07-21T04:02:51;694.57;;;661.17;;
13250;SDS011;6692;50.710;7.180;2022-07-21T04:04:52;681.63;;;649.77;;
13250;SDS011;6692;50.710;7.180;2022-07-21T04:06:53;680.90;;;648.40;;
13250;SDS011;6692;50.710;7.180;2022-07-21T04:08:53;694.43;;;661.17;;
13250;SDS011;6692;50.710;7.180;2022-07-21T04:10:55;677.57;;;645.27;;
13250;SDS011;6692;50.710;7.180;2022-07-21T04:12:56;677.13;;;645.27;;
13250;SDS011;6692;50.710;7.180;2022-07-21T04:14:56;680.30;;;647.97;;
13250;SDS011;6692;50.710;7.180;2022-07-21T04:16:57;674.17;;;642.73;;
13250;SDS011;6692;50.710;7.180;2022-07-21T04:18:57;661.50;;;630.87;;
13250;SDS011;6692;50.710;7.180;2022-07-21T04:20:58;659.30;;;628.47;;
13250;SDS011;6692;50.710;7.180;2022-07-21T04:22:59;670.50;;;638.90;;
13250;SDS011;6692;50.710;7.180;2022-07-21T04:25:00;654.00;;;623.77;;
13250;SDS011;6692;50.710;7.180;2022-07-21T04:27:01;664.93;;;634.10;;
13250;SDS011;6692;50.710;7.180;2022-07-21T04:29:01;670.57;;;639.03;;
13250;SDS011;6692;50.710;7.180;2022-07-21T04:31:02;677.23;;;645.17;;
13250;SDS011;6692;50.710;7.180;2022-07-21T04:33:03;677.63;;;645.17;;
13250;SDS011;6692;50.710;7.180;2022-07-21T04:35:04;659.30;;;628.63;;
13250;SDS011;6692;50.710;7.180;2022-07-21T04:37:04;666.40;;;635.00;;
13250;SDS011;6692;50.710;7.180;2022-07-21T04:39:05;673.17;;;641.17;;
13250;SDS011;6692;50.710;7.180;2022-07-21T04:41:06;684.57;;;652.27;;
13250;SDS011;6692;50.710;7.180;2022-07-21T04:43:07;692.47;;;659.67;;
13250;SDS011;6692;50.710;7.180;2022-07-21T04:45:08;697.30;;;663.40;;
13250;SDS011;6692;50.710;7.180;2022-07-21T04:47:09;703.47;;;669.70;;
13250;SDS011;6692;50.710;7.180;2022-07-21T04:49:10;708.30;;;673.70;;
13250;SDS011;6692;50.710;7.180;2022-07-21T04:51:11;727.90;;;691.47;;
13250;SDS011;6692;50.710;7.180;2022-07-21T04:53:12;697.07;;;663.07;;
13250;SDS011;6692;50.710;7.180;2022-07-21T04:55:13;720.90;;;685.37;;
13250;SDS011;6692;50.710;7.180;2022-07-21T04:57:13;737.47;;;700.60;;
13250;SDS011;6692;50.710;7.180;2022-07-21T04:59:14;733.77;;;696.83;;
13250;SDS011;6692;50.710;7.180;2022-07-21T05:01:15;733.03;;;696.00;;
13250;SDS011;6692;50.710;7.180;2022-07-21T05:03:16;714.07;;;679.23;;
13250;SDS011;6692;50.710;7.180;2022-07-21T05:05:17;712.57;;;677.97;;
13250;SDS011;6692;50.710;7.180;2022-07-21T05:07:17;714.93;;;679.63;;
13250;SDS011;6692;50.710;7.180;2022-07-21T05:09:18;728.53;;;692.17;;
13250;SDS011;6692;50.710;7.180;2022-07-21T05:11:18;733.13;;;696.03;;
13250;SDS011;6692;50.710;7.180;2022-07-21T05:13:19;743.43;;;706.00;;
13250;SDS011;6692;50.710;7.180;2022-07-21T05:15:20;768.30;;;728.20;;
13250;SDS011;6692;50.710;7.180;2022-07-21T05:17:21;761.67;;;722.40;;
13250;SDS011;6692;50.710;7.180;2022-07-21T05:19:22;774.13;;;733.63;;
13250;SDS011;6692;50.710;7.180;2022-07-21T05:21:22;776.67;;;735.97;;
13250;SDS011;6692;50.710;7.180;2022-07-21T05:23:24;779.70;;;738.33;;
13250;SDS011;6692;50.710;7.180;2022-07-21T05:25:24;776.93;;;736.23;;
13250;SDS011;6692;50.710;7.180;2022-07-21T05:27:25;791.57;;;749.20;;
13250;SDS011;6692;50.710;7.180;2022-07-21T05:29:26;788.27;;;745.30;;
13250;SDS011;6692;50.710;7.180;2022-07-21T05:31:27;785.33;;;743.37;;
13250;SDS011;6692;50.710;7.180;2022-07-21T05:33:28;787.90;;;746.30;;
13250;SDS011;6692;50.710;7.180;2022-07-21T05:35:29;777.30;;;736.43;;
13250;SDS011;6692;50.710;7.180;2022-07-21T05:37:29;783.70;;;742.07;;
13250;SDS011;6692;50.710;7.180;2022-07-21T05:39:30;763.10;;;724.13;;
13250;SDS011;6692;50.710;7.180;2022-07-21T05:41:31;767.87;;;728.27;;
13250;SDS011;6692;50.710;7.180;2022-07-21T05:43:33;751.63;;;713.27;;
13250;SDS011;6692;50.710;7.180;2022-07-21T05:45:34;761.00;;;721.63;;
13250;SDS011;6692;50.710;7.180;2022-07-21T05:47:35;752.13;;;714.50;;
13250;SDS011;6692;50.710;7.180;2022-07-21T05:49:36;725.57;;;690.20;;
13250;SDS011;6692;50.710;7.180;2022-07-21T05:51:36;734.90;;;697.17;;
13250;SDS011;6692;50.710;7.180;2022-07-21T05:53:37;738.13;;;701.50;;
13250;SDS011;6692;50.710;7.180;2022-07-21T05:55:37;750.53;;;712.93;;
13250;SDS011;6692;50.710;7.180;2022-07-21T05:57:38;754.27;;;715.47;;
13250;SDS011;6692;50.710;7.180;2022-07-21T05:59:39;742.17;;;704.43;;
13250;SDS011;6692;50.710;7.180;2022-07-21T06:01:39;758.40;;;719.53;;
13250;SDS011;6692;50.710;7.180;2022-07-21T06:03:42;750.53;;;712.40;;
13250;SDS011;6692;50.710;7.180;2022-07-21T06:05:42;756.03;;;717.80;;
13250;SDS011;6692;50.710;7.180;2022-07-21T06:07:42;751.50;;;712.50;;
13250;SDS011;6692;50.710;7.180;2022-07-21T06:09:44;749.67;;;711.80;;
13250;SDS011;6692;50.710;7.180;2022-07-21T06:11:45;756.70;;;718.30;;
13250;SDS011;6692;50.710;7.180;2022-07-21T06:13:46;744.00;;;706.87;;
13250;SDS011;6692;50.710;7.180;2022-07-21T06:15:46;736.43;;;698.50;;
13250;SDS011;6692;50.710;7.180;2022-07-21T06:17:47;764.97;;;725.47;;
13250;SDS011;6692;50.710;7.180;2022-07-21T06:19:48;772.17;;;732.30;;
13250;SDS011;6692;50.710;7.180;2022-07-21T06:21:49;755.33;;;717.07;;
13250;SDS011;6692;50.710;7.180;2022-07-21T06:23:50;737.57;;;700.70;;
13250;SDS011;6692;50.710;7.180;2022-07-21T06:25:52;735.53;;;698.53;;
13250;SDS011;6692;50.710;7.180;2022-07-21T06:27:52;744.53;;;707.07;;
13250;SDS011;6692;50.710;7.180;2022-07-21T06:29:53;741.90;;;704.67;;
13250;SDS011;6692;50.710;7.180;2022-07-21T06:31:55;765.13;;;724.87;;
13250;SDS011;6692;50.710;7.180;2022-07-21T06:33:55;781.27;;;740.40;;
13250;SDS011;6692;50.710;7.180;2022-07-21T06:35:55;766.93;;;726.77;;
13250;SDS011;6692;50.710;7.180;2022-07-21T06:37:56;787.10;;;745.27;;
13250;SDS011;6692;50.710;7.180;2022-07-21T06:39:57;788.00;;;745.83;;
13250;SDS011;6692;50.710;7.180;2022-07-21T06:41:58;812.03;;;767.63;;
13250;SDS011;6692;50.710;7.180;2022-07-21T06:43:59;789.67;;;747.97;;
13250;SDS011;6692;50.710;7.180;2022-07-21T06:45:59;791.40;;;749.90;;
13250;SDS011;6692;50.710;7.180;2022-07-21T06:48:01;789.70;;;747.87;;
13250;SDS011;6692;50.710;7.180;2022-07-21T06:50:01;783.43;;;742.43;;
13250;SDS011;6692;50.710;7.180;2022-07-21T06:52:03;785.57;;;743.43;;
13250;SDS011;6692;50.710;7.180;2022-07-21T06:54:04;784.30;;;743.57;;
13250;SDS011;6692;50.710;7.180;2022-07-21T06:56:05;782.20;;;740.77;;
13250;SDS011;6692;50.710;7.180;2022-07-21T06:58:09;791.20;;;749.40;;
13250;SDS011;6692;50.710;7.180;2022-07-21T07:00:10;806.90;;;763.03;;
13250;SDS011;6692;50.710;7.180;2022-07-21T07:02:11;822.30;;;777.03;;
13250;SDS011;6692;50.710;7.180;2022-07-21T07:04:12;844.30;;;796.17;;
13250;SDS011;6692;50.710;7.180;2022-07-21T07:06:13;849.83;;;801.47;;
13250;SDS011;6692;50.710;7.180;2022-07-21T07:08:13;802.10;;;759.30;;
13250;SDS011;6692;50.710;7.180;2022-07-21T07:10:14;817.00;;;772.30;;
13250;SDS011;6692;50.710;7.180;2022-07-21T07:12:15;806.13;;;762.97;;
13250;SDS011;6692;50.710;7.180;2022-07-21T07:14:15;804.53;;;760.77;;
13250;SDS011;6692;50.710;7.180;2022-07-21T07:16:16;809.90;;;766.63;;
13250;SDS011;6692;50.710;7.180;2022-07-21T07:18:17;805.80;;;762.37;;
13250;SDS011;6692;50.710;7.180;2022-07-21T07:20:18;828.80;;;782.17;;
13250;SDS011;6692;50.710;7.180;2022-07-21T07:22:19;829.10;;;782.27;;
13250;SDS011;6692;50.710;7.180;2022-07-21T07:24:19;841.30;;;793.17;;
13250;SDS011;6692;50.710;7.180;2022-07-21T07:26:20;851.17;;;803.03;;
13250;SDS011;6692;50.710;7.180;2022-07-21T07:28:21;818.73;;;773.97;;
13250;SDS011;6692;50.710;7.180;2022-07-21T07:30:22;789.63;;;748.07;;
13250;SDS011;6692;50.710;7.180;2022-07-21T07:32:22;804.73;;;761.93;;
13250;SDS011;6692;50.710;7.180;2022-07-21T07:34:23;806.43;;;762.83;;
13250;SDS011;6692;50.710;7.180;2022-07-21T07:36:25;826.87;;;781.27;;
13250;SDS011;6692;50.710;7.180;2022-07-21T07:38:25;853.13;;;804.50;;
13250;SDS011;6692;50.710;7.180;2022-07-21T07:40:25;879.70;;;827.13;;
13250;SDS011;6692;50.710;7.180;2022-07-21T07:42:26;881.97;;;830.23;;
13250;SDS011;6692;50.710;7.180;2022-07-21T07:44:27;872.07;;;820.47;;
13250;SDS011;6692;50.710;7.180;2022-07-21T07:46:27;867.60;;;817.03;;
13250;SDS011;6692;50.710;7.180;2022-07-21T07:48:28;876.47;;;824.73;;
13250;SDS011;6692;50.710;7.180;2022-07-21T07:50:29;895.00;;;841.17;;
13250;SDS011;6692;50.710;7.180;2022-07-21T07:52:29;911.57;;;855.43;;
13250;SDS011;6692;50.710;7.180;2022-07-21T07:54:30;900.80;;;845.80;;
13250;SDS011;6692;50.710;7.180;2022-07-21T07:56:31;904.70;;;850.53;;
13250;SDS011;6692;50.710;7.180;2022-07-21T07:58:31;870.50;;;819.57;;
13250;SDS011;6692;50.710;7.180;2022-07-21T08:00:32;880.47;;;829.10;;
13250;SDS011;6692;50.710;7.180;2022-07-21T08:02:33;879.87;;;828.50;;
13250;SDS011;6692;50.710;7.180;2022-07-21T08:04:34;856.67;;;808.13;;
13250;SDS011;6692;50.710;7.180;2022-07-21T08:06:35;815.53;;;771.67;;
13250;SDS011;6692;50.710;7.180;2022-07-21T08:08:35;835.60;;;789.10;;
13250;SDS011;6692;50.710;7.180;2022-07-21T08:10:36;801.57;;;759.50;;
13250;SDS011;6692;50.710;7.180;2022-07-21T08:12:37;760.87;;;721.73;;
13250;SDS011;6692;50.710;7.180;2022-07-21T08:14:37;782.40;;;741.50;;
13250;SDS011;6692;50.710;7.180;2022-07-21T08:16:38;784.07;;;742.00;;
13250;SDS011;6692;50.710;7.180;2022-07-21T08:18:39;815.03;;;770.77;;
13250;SDS011;6692;50.710;7.180;2022-07-21T08:20:39;790.57;;;748.97;;
13250;SDS011;6692;50.710;7.180;2022-07-21T08:22:40;807.13;;;763.67;;
13250;SDS011;6692;50.710;7.180;2022-07-21T08:24:40;826.47;;;780.83;;
13250;SDS011;6692;50.710;7.180;2022-07-21T08:26:41;815.07;;;770.70;;
13250;SDS011;6692;50.710;7.180;2022-07-21T08:28:43;824.20;;;778.53;;
13250;SDS011;6692;50.710;7.180;2022-07-21T08:30:43;855.83;;;807.17;;
13250;SDS011;6692;50.710;7.180;2022-07-21T08:32:44;866.10;;;816.43;;
13250;SDS011;6692;50.710;7.180;2022-07-21T08:34:45;841.07;;;794.10;;
13250;SDS011;6692;50.710;7.180;2022-07-21T08:36:47;858.57;;;809.30;;
13250;SDS011;6692;50.710;7.180;2022-07-21T08:38:47;835.70;;;789.90;;
13250;SDS011;6692;50.710;7.180;2022-07-21T08:40:48;851.17;;;802.47;;
13250;SDS011;6692;50.710;7.180;2022-07-21T08:42:49;798.90;;;756.53;;
13250;SDS011;6692;50.710;7.180;2022-07-21T08:44:50;802.30;;;760.23;;
13250;SDS011;6692;50.710;7.180;2022-07-21T08:46:51;824.10;;;778.80;;
13250;SDS011;6692;50.710;7.180;2022-07-21T08:48:53;809.77;;;766.20;;
13250;SDS011;6692;50.710;7.180;2022-07-21T08:50:55;850.00;;;802.10;;
13250;SDS011;6692;50.710;7.180;2022-07-21T08:52:55;775.27;;;735.47;;
13250;SDS011;6692;50.710;7.180;2022-07-21T08:54:56;841.13;;;793.43;;
13250;SDS011;6692;50.710;7.180;2022-07-21T08:56:56;800.50;;;758.23;;
13250;SDS011;6692;50.710;7.180;2022-07-21T08:58:57;762.53;;;724.27;;
13250;SDS011;6692;50.710;7.180;2022-07-21T09:00:58;701.37;;;668.13;;
13250;SDS011;6692;50.710;7.180;2022-07-21T09:05:12;731.57;;;695.90;;
13250;SDS011;6692;50.710;7.180;2022-07-21T09:07:12;690.43;;;658.37;;
13250;SDS011;6692;50.710;7.180;2022-07-21T09:09:17;677.60;;;646.20;;
13250;SDS011;6692;50.710;7.180;2022-07-21T09:11:16;741.47;;;704.57;;
13250;SDS011;6692;50.710;7.180;2022-07-21T09:13:24;547.70;;;525.13;;
13250;SDS011;6692;50.710;7.180;2022-07-21T09:15:25;615.70;;;588.73;;
13250;SDS011;6692;50.710;7.180;2022-07-21T09:17:26;565.10;;;541.17;;
13250;SDS011;6692;50.710;7.180;2022-07-21T09:19:27;633.80;;;605.47;;
13250;SDS011;6692;50.710;7.180;2022-07-21T09:21:33;639.63;;;611.07;;
13250;SDS011;6692;50.710;7.180;2022-07-21T09:23:33;574.00;;;549.70;;
13250;SDS011;6692;50.710;7.180;2022-07-21T09:25:35;569.70;;;545.67;;
13250;SDS011;6692;50.710;7.180;2022-07-21T09:27:36;559.13;;;535.67;;
13250;SDS011;6692;50.710;7.180;2022-07-21T09:29:40;505.37;;;484.93;;
13250;SDS011;6692;50.710;7.180;2022-07-21T09:31:40;542.97;;;520.30;;
13250;SDS011;6692;50.710;7.180;2022-07-21T09:33:42;473.40;;;454.53;;
13250;SDS011;6692;50.710;7.180;2022-07-21T09:35:50;607.17;;;580.50;;
13250;SDS011;6692;50.710;7.180;2022-07-21T09:37:42;405.03;;;389.70;;
13250;SDS011;6692;50.710;7.180;2022-07-21T09:39:44;411.07;;;395.37;;
13250;SDS011;6692;50.710;7.180;2022-07-21T09:41:45;562.27;;;537.97;;
13250;SDS011;6692;50.710;7.180;2022-07-21T09:43:48;574.13;;;549.47;;
13250;SDS011;6692;50.710;7.180;2022-07-21T09:45:48;415.33;;;399.53;;
13250;SDS011;6692;50.710;7.180;2022-07-21T09:47:49;595.17;;;568.60;;
13250;SDS011;6692;50.710;7.180;2022-07-21T09:49:50;620.20;;;592.33;;
13250;SDS011;6692;50.710;7.180;2022-07-21T09:51:50;569.97;;;545.03;;
13250;SDS011;6692;50.710;7.180;2022-07-21T09:53:54;410.47;;;394.70;;
13250;SDS011;6692;50.710;7.180;2022-07-21T09:55:54;436.67;;;419.63;;
13250;SDS011;6692;50.710;7.180;2022-07-21T09:57:55;416.23;;;400.20;;
13250;SDS011;6692;50.710;7.180;2022-07-21T09:59:56;412.17;;;396.13;;
13250;SDS011;6692;50.710;7.180;2022-07-21T10:01:56;459.00;;;441.03;;
13250;SDS011;6692;50.710;7.180;2022-07-21T10:03:57;436.07;;;419.03;;
13250;SDS011;6692;50.710;7.180;2022-07-21T10:05:58;337.27;;;324.67;;
13250;SDS011;6692;50.710;7.180;2022-07-21T10:08:00;420.00;;;403.63;;
13250;SDS011;6692;50.710;7.180;2022-07-21T10:09:59;264.90;;;255.40;;
13250;SDS011;6692;50.710;7.180;2022-07-21T10:12:00;322.27;;;310.33;;
13250;SDS011;6692;50.710;7.180;2022-07-21T10:14:01;346.77;;;333.80;;
13250;SDS011;6692;50.710;7.180;2022-07-21T10:16:02;255.87;;;246.70;;
13250;SDS011;6692;50.710;7.180;2022-07-21T10:18:03;337.67;;;325.03;;
13250;SDS011;6692;50.710;7.180;2022-07-21T10:20:07;289.33;;;278.90;;
13250;SDS011;6692;50.710;7.180;2022-07-21T10:24:28;413.63;;;397.70;;
13250;SDS011;6692;50.710;7.180;2022-07-21T10:26:29;304.93;;;293.57;;
13250;SDS011;6692;50.710;7.180;2022-07-21T10:28:29;265.27;;;255.90;;
13250;SDS011;6692;50.710;7.180;2022-07-21T10:30:36;291.53;;;281.10;;
13250;SDS011;6692;50.710;7.180;2022-07-21T10:32:34;210.23;;;202.57;;
13250;SDS011;6692;50.710;7.180;2022-07-21T10:34:34;268.33;;;258.67;;
13250;SDS011;6692;50.710;7.180;2022-07-21T10:38:42;203.07;;;195.70;;
13250;SDS011;6692;50.710;7.180;2022-07-21T10:40:42;211.43;;;204.00;;
13250;SDS011;6692;50.710;7.180;2022-07-21T10:42:43;154.83;;;149.20;;
13250;SDS011;6692;50.710;7.180;2022-07-21T10:44:44;161.27;;;155.57;;
13250;SDS011;6692;50.710;7.180;2022-07-21T10:46:44;203.87;;;196.47;;
13250;SDS011;6692;50.710;7.180;2022-07-21T10:48:46;188.57;;;181.73;;
13250;SDS011;6692;50.710;7.180;2022-07-21T10:50:47;267.87;;;258.27;;
13250;SDS011;6692;50.710;7.180;2022-07-21T10:53:03;167.70;;;161.63;;
13250;SDS011;6692;50.710;7.180;2022-07-21T10:59:24;175.37;;;169.13;;
13250;SDS011;6692;50.710;7.180;2022-07-21T11:01:25;221.00;;;213.00;;
13250;SDS011;6692;50.710;7.180;2022-07-21T11:03:28;165.40;;;159.47;;
13250;SDS011;6692;50.710;7.180;2022-07-21T11:05:30;158.00;;;152.10;;
13250;SDS011;6692;50.710;7.180;2022-07-21T11:10:12;191.57;;;184.77;;
13250;SDS011;6692;50.710;7.180;2022-07-21T11:14:04;226.97;;;218.87;;
13250;SDS011;6692;50.710;7.180;2022-07-21T11:16:05;138.13;;;132.97;;
13250;SDS011;6692;50.710;7.180;2022-07-21T11:18:06;288.93;;;278.13;;
13250;SDS011;6692;50.710;7.180;2022-07-21T11:20:12;140.47;;;135.30;;
13250;SDS011;6692;50.710;7.180;2022-07-21T11:22:23;155.37;;;149.73;;
13250;SDS011;6692;50.710;7.180;2022-07-21T11:24:26;296.77;;;285.87;;
13250;SDS011;6692;50.710;7.180;2022-07-21T11:26:26;142.87;;;137.67;;
13250;SDS011;6692;50.710;7.180;2022-07-21T11:28:27;231.67;;;223.23;;
13250;SDS011;6692;50.710;7.180;2022-07-21T11:30:28;120.17;;;115.67;;
13250;SDS011;6692;50.710;7.180;2022-07-21T11:32:28;150.50;;;144.77;;
13250;SDS011;6692;50.710;7.180;2022-07-21T11:36:39;196.30;;;189.30;;
13250;SDS011;6692;50.710;7.180;2022-07-21T11:38:55;98.93;;;95.00;;
13250;SDS011;6692;50.710;7.180;2022-07-21T11:40:40;169.23;;;163.10;;
13250;SDS011;6692;50.710;7.180;2022-07-21T11:42:42;115.57;;;111.33;;
13250;SDS011;6692;50.710;7.180;2022-07-21T11:44:42;118.97;;;114.53;;
13250;SDS011;6692;50.710;7.180;2022-07-21T11:46:46;130.37;;;125.40;;
13250;SDS011;6692;50.710;7.180;2022-07-21T11:48:46;114.07;;;109.87;;
13250;SDS011;6692;50.710;7.180;2022-07-21T11:50:58;158.90;;;153.03;;
13250;SDS011;6692;50.710;7.180;2022-07-21T11:52:48;154.07;;;148.37;;
13250;SDS011;6692;50.710;7.180;2022-07-21T11:54:50;142.33;;;137.17;;